Time;durP1;ratioP1;P1;durP2;ratioP2;P2;SDS_P1;SDS_P2;PMS_P1;PMS_P2;Temp;Humidity;BMP_temperature;BMP_pressure;BME280_temperature;BME280_humidity;BME280_pressure;Samples;Min_cycle;Max_cycle;Signal;HPM_P1;HPM_P2
2020/12/25 00:02:17;;;;;;;2.00;1.60;;;;;;;4.38;78.31;98191.03;1752982;81;20993;-36
2020/12/25 00:04:45;;;;;;;2.50;2.30;;;;;;;4.36;78.35;98195.95;1754569;81;21120;-36
2020/12/25 00:07:14;;;;;;;2.02;1.80;;;;;;;4.30;78.58;98193.33;1752575;81;21200;-36
2020/12/25 00:09:42;;;;;;;2.75;1.80;;;;;;;4.23;78.80;98193.14;1731826;81;21205;-36
2020/12/25 00:12:11;;;;;;;4.78;1.85;;;;;;;4.22;78.83;98198.28;1718474;82;22093;-36
2020/12/25 00:14:39;;;;;;;2.55;1.90;;;;;;;4.24;78.97;98202.20;1714303;81;21186;-36
2020/12/25 00:17:08;;;;;;;2.52;1.92;;;;;;;4.25;78.94;98188.22;1728040;81;21189;-36
2020/12/25 00:19:36;;;;;;;2.50;1.80;;;;;;;4.21;79.03;98194.81;1754558;81;21154;-36
2020/12/25 00:22:04;;;;;;;2.10;1.80;;;;;;;4.20;79.08;98188.48;1751659;81;21339;-36
2020/12/25 00:24:32;;;;;;;2.02;1.70;;;;;;;4.24;79.10;98181.30;1759244;80;21167;-37
2020/12/25 00:27:02;;;;;;;2.37;1.95;;;;;;;4.31;78.96;98168.03;1754735;81;21068;-36
2020/12/25 00:29:32;;;;;;;;;;;;;;;4.27;79.28;98183.27;1736433;81;21173;-36
2020/12/25 00:32:00;;;;;;;1.90;1.60;;;;;;;4.22;79.54;98169.55;1724973;81;20268;-36
2020/12/25 00:34:29;;;;;;;2.27;1.90;;;;;;;4.13;79.91;98163.59;1769327;80;21380;-36
2020/12/25 00:36:58;;;;;;;2.80;2.12;;;;;;;4.22;79.78;98167.44;1753613;81;21179;-36
2020/12/25 00:39:26;;;;;;;3.62;2.00;;;;;;;4.28;79.59;98166.05;1754544;81;21052;-36
2020/12/25 00:41:56;;;;;;;3.22;2.40;;;;;;;4.26;79.64;98165.64;1746344;80;21194;-36
2020/12/25 00:44:24;;;;;;;3.30;2.00;;;;;;;4.23;79.74;98160.39;1725352;81;21177;-36
2020/12/25 00:46:52;;;;;;;3.22;2.20;;;;;;;4.21;79.81;98166.66;1724592;83;21309;-36
2020/12/25 00:49:21;;;;;;;2.92;2.25;;;;;;;4.26;79.80;98154.91;1731000;80;21198;-36
2020/12/25 00:51:49;;;;;;;2.55;2.02;;;;;;;4.27;79.81;98157.79;1734692;81;21451;-36
2020/12/25 00:54:19;;;;;;;3.05;2.30;;;;;;;4.24;79.94;98147.77;1753743;81;20984;-36
2020/12/25 00:57:01;;;;;;;2.95;2.15;;;;;;;4.31;79.92;98145.23;1888981;76;22677;-36
2020/12/25 00:59:38;;;;;;;2.87;2.58;;;;;;;4.33;79.80;98141.09;1853833;77;21004;-36
2020/12/25 01:02:06;;;;;;;3.08;2.40;;;;;;;4.35;79.72;98139.41;1825924;77;21189;-36
2020/12/25 01:04:35;;;;;;;2.60;2.02;;;;;;;4.33;79.79;98138.97;1856943;77;20984;-36
2020/12/25 01:07:07;;;;;;;2.83;2.27;;;;;;;4.31;79.88;98127.80;1786008;80;20988;-36
2020/12/25 01:09:35;;;;;;;2.80;2.37;;;;;;;4.37;79.82;98139.27;1789705;80;21558;-37
2020/12/25 01:12:03;;;;;;;2.87;2.15;;;;;;;4.42;79.69;98130.73;1796593;78;21004;-37
2020/12/25 01:14:32;;;;;;;2.95;2.40;;;;;;;4.40;79.73;98133.78;1803196;78;21602;-36
2020/12/25 01:17:00;;;;;;;3.08;2.27;;;;;;;4.34;79.96;98140.53;1816644;78;21080;-36
2020/12/25 01:19:28;;;;;;;4.17;2.72;;;;;;;4.32;80.07;98141.43;1820892;78;20986;-36
2020/12/25 01:21:57;;;;;;;3.55;2.77;;;;;;;4.37;79.95;98144.63;1800824;78;21011;-36
2020/12/25 01:24:28;;;;;;;4.62;3.20;;;;;;;4.37;80.02;98142.51;1764449;80;21143;-36
2020/12/25 01:26:56;;;;;;;4.62;3.62;;;;;;;4.36;80.03;98141.73;1791800;78;21396;-36
2020/12/25 01:29:25;;;;;;;3.92;2.98;;;;;;;4.41;79.89;98138.00;1789667;80;20964;-36
2020/12/25 01:31:53;;;;;;;4.10;3.08;;;;;;;4.51;79.69;98136.13;1803703;78;21133;-36
2020/12/25 01:34:23;;;;;;;;;;;;;;;4.53;79.57;98135.23;1813480;78;21038;-36
2020/12/25 01:36:51;;;;;;;5.40;3.72;;;;;;;4.50;79.62;98137.84;1822011;78;20224;-36
2020/12/25 01:39:20;;;;;;;6.55;4.67;;;;;;;4.36;80.02;98145.75;1812384;78;21339;-36
2020/12/25 01:41:49;;;;;;;7.50;4.10;;;;;;;4.39;80.20;98137.59;1785484;79;21149;-37
2020/12/25 01:44:17;;;;;;;6.90;4.85;;;;;;;4.45;80.11;98142.13;1784603;80;21614;-36
2020/12/25 01:46:46;;;;;;;7.58;4.83;;;;;;;4.46;80.11;98144.44;1789548;79;21162;-36
2020/12/25 01:49:14;;;;;;;9.63;6.15;;;;;;;4.43;80.29;98141.69;1816864;79;21083;-36
2020/12/25 01:51:43;;;;;;;8.30;5.70;;;;;;;4.45;80.40;98138.88;1815827;79;21149;-36
2020/12/25 01:54:11;;;;;;;10.28;6.72;;;;;;;4.54;80.22;98144.84;1801943;78;21130;-36
2020/12/25 01:56:41;;;;;;;10.38;6.95;;;;;;;4.64;80.07;98139.50;1781505;79;20980;-36
2020/12/25 01:59:10;;;;;;;11.83;7.75;;;;;;;4.65;80.12;98137.78;1781618;79;21545;-36
2020/12/25 02:01:38;;;;;;;14.70;9.15;;;;;;;4.65;80.27;98136.45;1811331;79;21011;-36
2020/12/25 02:04:07;;;;;;;15.30;9.60;;;;;;;4.68;80.24;98137.11;1790404;79;21154;-37
2020/12/25 02:06:39;;;;;;;14.85;8.98;;;;;;;4.76;80.15;98140.15;1775112;79;21178;-36
2020/12/25 02:09:07;;;;;;;19.60;11.03;;;;;;;4.86;79.98;98136.70;1779978;79;21012;-36
2020/12/25 02:11:37;;;;;;;16.37;10.65;;;;;;;4.83;80.12;98140.09;1810367;78;21153;-36
2020/12/25 02:14:05;;;;;;;17.27;10.85;;;;;;;4.79;80.28;98139.44;1788676;79;21140;-36
2020/12/25 02:16:33;;;;;;;15.98;10.63;;;;;;;4.83;80.35;98139.53;1824935;78;21118;-36
2020/12/25 02:19:01;;;;;;;20.05;12.33;;;;;;;4.89;80.33;98129.30;1823181;78;21190;-36
2020/12/25 02:21:30;;;;;;;21.65;12.95;;;;;;;4.93;80.40;98144.92;1793687;78;21049;-36
2020/12/25 02:23:58;;;;;;;22.58;14.23;;;;;;;4.93;80.46;98143.58;1783865;80;21152;-36
2020/12/25 02:26:28;;;;;;;24.23;14.25;;;;;;;4.92;80.57;98134.74;1786239;80;21047;-36
2020/12/25 02:28:57;;;;;;;23.70;15.00;;;;;;;4.95;80.55;98127.88;1779252;80;21192;-36
2020/12/25 02:31:25;;;;;;;23.85;14.55;;;;;;;5.03;80.56;98132.29;1771525;80;21185;-36
2020/12/25 02:33:54;;;;;;;23.38;14.07;;;;;;;5.04;80.61;98136.50;1763160;80;21138;-36
2020/12/25 02:36:22;;;;;;;24.30;14.85;;;;;;;5.03;80.73;98128.26;1790043;80;21611;-36
2020/12/25 02:38:52;;;;;;;24.60;15.00;;;;;;;5.07;80.70;98123.73;1784873;80;21170;-36
2020/12/25 02:41:21;;;;;;;24.47;15.43;;;;;;;5.15;80.54;98124.86;1777388;79;21252;-36
2020/12/25 02:43:50;;;;;;;23.50;15.63;;;;;;;5.18;80.55;98124.73;1791362;78;21137;-37
2020/12/25 02:46:21;;;;;;;23.32;14.33;;;;;;;5.18;80.61;98132.20;1792365;80;21024;-36
2020/12/25 02:48:49;;;;;;;25.80;16.30;;;;;;;5.16;80.69;98118.36;1790984;78;21162;-36
2020/12/25 02:51:18;;;;;;;23.55;15.58;;;;;;;5.21;80.67;98124.02;1765430;80;21162;-36
2020/12/25 02:53:46;;;;;;;26.77;17.02;;;;;;;5.32;80.41;98132.30;1819195;78;21172;-36
2020/12/25 02:56:19;;;;;;;29.65;17.05;;;;;;;5.32;80.42;98135.77;1785681;80;21102;-37
2020/12/25 02:58:47;;;;;;;25.20;16.87;;;;;;;5.27;80.54;98142.77;1784114;78;21190;-36
2020/12/25 03:01:16;;;;;;;30.27;17.00;;;;;;;5.25;80.66;98137.73;1777319;80;21158;-36
2020/12/25 03:03:44;;;;;;;31.85;19.30;;;;;;;5.28;80.66;98145.64;1765532;80;21121;-37
2020/12/25 03:06:15;;;;;;;29.48;17.02;;;;;;;5.28;80.72;98146.98;1785362;80;21197;-36
2020/12/25 03:08:44;;;;;;;25.77;16.25;;;;;;;5.26;80.75;98143.89;1781774;80;21166;-36
2020/12/25 03:11:12;;;;;;;24.52;15.72;;;;;;;5.26;80.82;98143.89;1774218;80;21031;-36
2020/12/25 03:13:41;;;;;;;25.72;16.95;;;;;;;5.32;80.63;98150.54;1794482;78;21051;-36
2020/12/25 03:16:09;;;;;;;26.85;17.20;;;;;;;5.33;80.59;98153.42;1785329;80;21407;-36
2020/12/25 03:18:38;;;;;;;27.02;17.00;;;;;;;5.32;80.37;98158.60;1785275;80;21150;-36
2020/12/25 03:21:07;;;;;;;26.55;17.37;;;;;;;5.30;80.28;98160.85;1762390;80;21549;-36
2020/12/25 03:23:35;;;;;;;27.58;18.05;;;;;;;5.33;80.27;98166.85;1783698;79;21553;-37
2020/12/25 03:26:03;;;;;;;27.20;18.60;;;;;;;5.36;80.21;98167.51;1779788;80;21023;-37
2020/12/25 03:28:31;;;;;;;23.95;15.83;;;;;;;5.32;80.41;98173.38;1785425;80;21099;-37
2020/12/25 03:31:00;;;;;;;25.80;16.12;;;;;;;5.31;80.48;98162.41;1774677;80;21424;-36
2020/12/25 03:33:28;;;;;;;24.85;16.87;;;;;;;5.37;80.27;98171.76;1788857;80;21166;-37
2020/12/25 03:35:56;;;;;;;25.45;16.70;;;;;;;5.41;80.09;98164.54;1775660;80;21133;-36
2020/12/25 03:38:25;;;;;;;28.12;18.00;;;;;;;5.39;80.11;98170.82;1788854;78;21111;-36
2020/12/25 03:40:53;;;;;;;23.98;16.37;;;;;;;5.39;80.06;98170.82;1789969;78;21146;-37
2020/12/25 03:43:21;;;;;;;23.42;16.45;;;;;;;5.38;80.11;98169.26;1788956;80;21332;-36
2020/12/25 03:45:51;;;;;;;28.92;17.05;;;;;;;5.44;79.89;98163.82;1771743;80;21208;-37
2020/12/25 03:48:19;;;;;;;25.70;16.75;;;;;;;5.43;79.79;98166.29;1757609;81;20961;-36
2020/12/25 03:50:48;;;;;;;25.68;16.77;;;;;;;5.39;79.89;98161.42;1789377;78;21150;-36
2020/12/25 03:53:16;;;;;;;23.87;15.78;;;;;;;5.39;79.78;98160.07;1788905;80;21132;-36
2020/12/25 03:55:44;;;;;;;26.45;17.60;;;;;;;5.47;79.67;98157.72;1788526;78;21187;-37
2020/12/25 03:58:12;;;;;;;27.20;17.90;;;;;;;5.53;79.70;98155.53;1821087;78;21140;-36
2020/12/25 04:00:41;;;;;;;26.82;17.32;;;;;;;5.56;79.58;98153.50;1772333;79;20994;-36
2020/12/25 04:03:10;;;;;;;23.98;16.32;;;;;;;5.56;79.40;98156.97;1789425;78;21154;-37
2020/12/25 04:05:38;;;;;;;22.13;15.08;;;;;;;5.59;79.21;98164.31;1789330;78;21123;-36
2020/12/25 04:08:07;;;;;;;23.18;16.05;;;;;;;5.67;79.00;98157.92;1791126;78;21301;-36
2020/12/25 04:10:36;;;;;;;23.90;15.93;;;;;;;5.71;78.95;98169.33;1792287;78;21197;-37
2020/12/25 04:13:05;;;;;;;25.65;17.12;;;;;;;5.67;78.83;98171.37;1821313;78;21156;-36
2020/12/25 04:16:45;;;;;;;25.10;16.62;;;;;;;5.62;79.00;98160.90;1785923;78;22327;-37
2020/12/25 04:19:14;;;;;;;23.07;15.15;;;;;;;5.60;78.94;98162.41;1788048;80;21007;-36
2020/12/25 04:21:42;;;;;;;23.25;16.50;;;;;;;5.66;78.80;98162.34;1786950;80;21207;-37
2020/12/25 04:24:11;;;;;;;23.65;16.45;;;;;;;5.66;78.84;98167.12;1782358;80;20949;-37
2020/12/25 04:26:39;;;;;;;22.93;15.15;;;;;;;5.62;78.89;98164.16;1785327;80;21609;-36
2020/12/25 04:29:07;;;;;;;22.30;15.48;;;;;;;5.60;78.96;98167.22;1787992;80;21023;-36
2020/12/25 04:31:36;;;;;;;21.50;14.75;;;;;;;5.65;78.90;98179.03;1765427;80;21286;-36
2020/12/25 04:34:04;;;;;;;22.15;15.28;;;;;;;5.67;78.78;98180.00;1756760;81;21206;-36
2020/12/25 04:36:32;;;;;;;22.25;15.60;;;;;;;5.60;78.93;98175.28;1774086;80;21032;-37
2020/12/25 04:39:01;;;;;;;23.18;15.88;;;;;;;5.55;79.11;98174.22;1756919;80;21153;-37
2020/12/25 04:41:31;;;;;;;25.10;16.07;;;;;;;5.58;79.05;98167.34;1757124;80;21200;-36
2020/12/25 04:44:01;;;;;;;21.00;15.20;;;;;;;5.63;78.96;98179.94;1767909;80;21114;-36
2020/12/25 04:46:29;;;;;;;23.35;15.95;;;;;;;5.65;78.99;98192.47;1716344;83;21201;-37
2020/12/25 04:48:58;;;;;;;22.45;16.20;;;;;;;5.64;79.04;98184.19;1727137;82;21153;-37
2020/12/25 04:51:27;;;;;;;22.85;15.75;;;;;;;5.65;79.01;98186.31;1711641;83;21183;-36
2020/12/25 04:53:55;;;;;;;22.58;15.10;;;;;;;5.71;78.88;98193.53;1698122;84;21111;-36
2020/12/25 04:56:24;;;;;;;22.40;15.45;;;;;;;5.81;78.56;98194.30;1725263;83;21350;-37
2020/12/25 04:58:53;;;;;;;23.45;15.88;;;;;;;5.83;78.37;98190.67;1699494;83;21986;-36
2020/12/25 05:01:22;;;;;;;18.42;12.03;;;;;;;5.83;78.32;98193.36;1698417;83;21001;-36
2020/12/25 05:03:50;;;;;;;20.90;14.13;;;;;;;5.78;78.26;98200.38;1698062;84;21603;-36
2020/12/25 05:06:20;;;;;;;23.15;15.58;;;;;;;5.77;78.24;98206.88;1698715;83;21163;-37
2020/12/25 05:08:51;;;;;;;20.92;14.93;;;;;;;5.77;78.25;98196.91;1724489;83;21117;-37
2020/12/25 05:11:21;;;;;;;21.42;15.40;;;;;;;5.78;78.27;98204.41;1727167;83;21376;-36
2020/12/25 05:13:52;;;;;;;22.05;16.27;;;;;;;5.74;78.41;98197.63;1712467;83;21162;-36
2020/12/25 05:16:21;;;;;;;19.80;13.58;;;;;;;5.72;78.45;98208.51;1686093;84;21148;-37
2020/12/25 05:18:52;;;;;;;24.37;15.43;;;;;;;5.75;78.36;98213.20;1703164;84;21080;-37
2020/12/25 05:21:21;;;;;;;21.23;15.03;;;;;;;5.79;78.29;98215.38;1690311;84;21382;-37
2020/12/25 05:23:50;;;;;;;20.23;14.13;;;;;;;5.78;78.34;98204.41;1697811;84;22301;-37
2020/12/25 05:26:18;;;;;;;24.00;16.48;;;;;;;5.76;78.41;98207.44;1680543;85;21377;-37
2020/12/25 05:28:48;;;;;;;21.82;15.53;;;;;;;5.72;78.39;98213.89;1681698;84;21025;-36
2020/12/25 05:31:18;;;;;;;19.52;14.20;;;;;;;5.73;78.32;98222.95;1680367;84;21628;-36
2020/12/25 05:33:48;;;;;;;20.23;14.63;;;;;;;5.81;78.09;98225.23;1680780;84;21164;-36
2020/12/25 05:36:16;;;;;;;;;;;;;;;5.82;78.00;98222.73;1682965;84;21235;-37
2020/12/25 05:38:49;;;;;;;23.92;15.70;;;;;;;5.79;78.02;98210.00;1680817;83;20139;-36
2020/12/25 05:41:17;;;;;;;21.68;15.18;;;;;;;5.66;78.22;98218.20;1680149;85;21160;-37
2020/12/25 05:43:50;;;;;;;20.85;15.60;;;;;;;5.74;78.08;98223.17;1689891;84;20987;-37
2020/12/25 05:46:19;;;;;;;19.35;14.75;;;;;;;5.84;77.69;98227.98;1708823;84;21529;-36
2020/12/25 05:48:50;;;;;;;20.25;15.43;;;;;;;5.85;77.44;98228.77;1685747;83;21431;-36
2020/12/25 05:51:21;;;;;;;23.50;15.93;;;;;;;5.81;77.53;98242.71;1679696;85;21193;-37
2020/12/25 05:53:51;;;;;;;21.30;15.25;;;;;;;5.80;77.53;98239.24;1701284;84;21021;-36
2020/12/25 05:56:19;;;;;;;19.02;13.55;;;;;;;5.84;77.39;98243.34;1688221;84;28279;-36
2020/12/25 05:58:48;;;;;;;17.23;13.32;;;;;;;5.88;77.27;98242.30;1690856;84;21584;-37
2020/12/25 06:01:16;;;;;;;18.60;14.20;;;;;;;5.87;77.30;98243.99;1696319;84;23649;-37
2020/12/25 06:03:44;;;;;;;20.82;14.23;;;;;;;5.88;77.30;98250.38;1680145;85;21133;-36
2020/12/25 06:06:14;;;;;;;19.62;14.73;;;;;;;5.90;77.19;98245.98;1690562;83;20985;-37
2020/12/25 06:08:59;;;;;;;19.15;13.90;;;;;;;5.94;76.89;98252.21;1686363;84;21057;-36
2020/12/25 06:11:30;;;;;;;17.42;12.43;;;;;;;5.96;76.56;98259.34;1685063;83;21129;-36
2020/12/25 06:13:59;;;;;;;17.32;12.73;;;;;;;6.03;76.36;98263.52;1744376;80;21352;-37
2020/12/25 06:16:28;;;;;;;20.32;13.80;;;;;;;6.07;76.27;98257.64;1742878;81;21139;-37
2020/12/25 06:19:07;;;;;;;19.00;14.23;;;;;;;6.10;76.01;98260.39;1765032;81;20985;-36
2020/12/25 06:21:58;;;;;;;18.23;13.48;;;;;;;6.12;75.81;98270.80;1706743;84;21018;-37
2020/12/25 06:24:38;;;;;;;18.62;13.18;;;;;;;6.13;75.77;98276.97;1747068;79;21183;-37
2020/12/25 06:27:08;;;;;;;17.75;13.15;;;;;;;6.20;75.36;98287.84;1758824;81;21362;-36
2020/12/25 06:29:37;;;;;;;18.73;13.75;;;;;;;6.24;75.10;98289.50;1760331;81;21151;-36
2020/12/25 06:32:05;;;;;;;19.80;13.90;;;;;;;6.25;74.85;98295.07;1726472;81;20989;-37
2020/12/25 06:34:46;;;;;;;19.27;14.70;;;;;;;6.21;74.66;98300.95;1772170;81;21143;-37
2020/12/25 06:37:17;;;;;;;21.17;15.10;;;;;;;6.16;74.73;98303.94;1771661;80;20997;-37
2020/12/25 06:39:50;;;;;;;19.07;13.58;;;;;;;6.12;74.64;98312.52;1743124;80;21344;-36
2020/12/25 06:42:36;;;;;;;17.62;13.45;;;;;;;6.11;74.67;98309.04;1767347;80;21210;-37
2020/12/25 06:45:06;;;;;;;18.60;13.70;;;;;;;6.17;74.69;98306.06;1761693;80;21616;-36
2020/12/25 06:47:36;;;;;;;18.02;13.58;;;;;;;6.22;74.71;98312.50;1766310;80;21129;-37
2020/12/25 06:50:11;;;;;;;;;;;;;;;6.22;74.63;98316.54;1706601;84;21132;-37
2020/12/25 06:52:54;;;;;;;19.73;13.18;;;;;;;6.19;74.67;98326.69;1689999;84;21215;-37
2020/12/25 06:55:26;;;;;;;18.17;13.70;;;;;;;6.06;75.01;98324.69;1754007;80;20996;-37
2020/12/25 06:57:54;;;;;;;18.00;12.47;;;;;;;6.11;74.91;98330.56;1768611;80;21635;-36
2020/12/25 07:00:23;;;;;;;17.25;12.35;;;;;;;6.19;74.80;98334.19;1768096;80;21122;-37
2020/12/25 07:02:52;;;;;;;16.63;12.20;;;;;;;6.19;74.71;98331.50;1764718;80;21140;-37
2020/12/25 07:05:23;;;;;;;17.90;12.28;;;;;;;6.16;74.77;98327.38;1709505;83;21274;-36
2020/12/25 07:07:52;;;;;;;16.00;12.35;;;;;;;6.08;74.85;98331.28;1767991;80;21151;-36
2020/12/25 07:10:21;;;;;;;15.63;11.28;;;;;;;6.01;75.10;98340.55;1789841;80;20984;-37
2020/12/25 07:12:49;;;;;;;15.32;10.72;;;;;;;5.97;75.29;98325.47;1758943;80;21594;-36
2020/12/25 07:15:17;;;;;;;16.37;11.60;;;;;;;6.02;75.39;98335.38;1727160;80;21429;-36
2020/12/25 07:17:46;;;;;;;14.63;11.05;;;;;;;5.76;75.34;98296.19;1766199;80;21370;-37
2020/12/25 07:20:14;;;;;;;16.77;11.75;;;;;;;6.01;75.25;98341.89;1763823;80;21157;-37
2020/12/25 07:22:42;;;;;;;15.30;12.03;;;;;;;5.94;75.41;98339.08;1725201;82;21004;-37
2020/12/25 07:25:15;;;;;;;17.00;12.00;;;;;;;5.85;75.81;98348.45;1723710;82;21051;-37
2020/12/25 07:27:43;;;;;;;15.45;10.72;;;;;;;5.80;76.20;98355.45;1719394;82;21130;-37
2020/12/25 07:30:12;;;;;;;15.75;11.25;;;;;;;5.79;76.43;98356.58;1733125;82;22256;-37
2020/12/25 07:32:40;;;;;;;18.42;13.18;;;;;;;5.73;76.72;98357.41;1736924;82;21190;-36
2020/12/25 07:35:09;;;;;;;19.20;13.65;;;;;;;5.67;76.98;98359.59;1660077;85;21155;-37
2020/12/25 07:37:37;;;;;;;24.18;14.03;;;;;;;5.63;77.30;98367.36;1715291;82;21191;-37
2020/12/25 07:40:06;;;;;;;28.23;14.68;;;;;;;5.62;77.54;98369.27;1714152;82;21610;-36
2020/12/25 07:42:35;;;;;;;27.20;15.13;;;;;;;5.71;77.45;98374.48;1713382;83;21200;-37
2020/12/25 07:45:05;;;;;;;18.67;12.18;;;;;;;5.74;77.45;98370.30;1716334;81;21127;-37
2020/12/25 07:47:41;;;;;;;18.52;11.00;;;;;;;5.74;77.52;98371.64;1731690;81;21163;-36
2020/12/25 07:50:10;;;;;;;16.57;10.43;;;;;;;5.76;77.55;98372.08;1729147;82;21071;-37
2020/12/25 07:52:38;;;;;;;14.38;9.65;;;;;;;5.79;77.41;98377.53;1731968;82;21087;-37
2020/12/25 07:55:09;;;;;;;14.80;9.38;;;;;;;5.87;77.24;98379.82;1724296;82;21232;-37
2020/12/25 07:57:38;;;;;;;14.70;9.15;;;;;;;5.92;77.15;98380.89;1715486;82;21043;-37
2020/12/25 08:00:07;;;;;;;13.40;9.88;;;;;;;5.96;77.05;98386.56;1713503;83;21181;-37
2020/12/25 08:02:35;;;;;;;12.25;8.98;;;;;;;5.97;76.70;98387.34;1713982;82;21147;-36
2020/12/25 08:05:09;;;;;;;12.23;8.90;;;;;;;6.03;76.39;98391.32;1719635;82;21142;-37
2020/12/25 08:07:42;;;;;;;11.08;8.00;;;;;;;6.10;76.05;98390.11;1727201;82;21363;-36
2020/12/25 08:10:17;;;;;;;11.33;8.30;;;;;;;6.06;75.96;98391.95;1677050;85;21159;-37
2020/12/25 08:12:51;;;;;;;12.78;9.08;;;;;;;5.99;76.09;98394.51;1693846;82;21178;-37
2020/12/25 08:15:19;;;;;;;10.30;8.60;;;;;;;5.92;76.25;98399.16;1736581;82;21118;-37
2020/12/25 08:17:50;;;;;;;10.63;8.65;;;;;;;5.96;76.32;98405.95;1711903;83;21171;-37
2020/12/25 08:20:22;;;;;;;12.40;8.70;;;;;;;6.01;76.28;98407.02;1711388;82;21392;-37
2020/12/25 08:22:50;;;;;;;13.62;9.63;;;;;;;6.05;76.29;98413.28;1718579;82;21582;-37
2020/12/25 08:25:18;;;;;;;14.53;11.33;;;;;;;6.04;76.23;98418.45;1717671;82;21185;-37
2020/12/25 08:27:47;;;;;;;15.90;11.18;;;;;;;6.01;76.33;98420.48;1711561;83;21150;-37
2020/12/25 08:30:15;;;;;;;12.85;10.08;;;;;;;6.04;76.31;98416.53;1659562;82;21136;-36
2020/12/25 08:32:46;;;;;;;12.60;10.32;;;;;;;6.14;76.17;98411.73;1741190;82;21381;-37
2020/12/25 08:35:16;;;;;;;15.85;10.82;;;;;;;6.20;76.06;98415.67;1740911;82;21166;-37
2020/12/25 08:38:02;;;;;;;13.03;9.33;;;;;;;6.22;76.02;98418.25;1735906;82;21158;-36
2020/12/25 08:40:32;;;;;;;13.48;8.78;;;;;;;6.26;75.81;98417.75;1741258;82;21605;-37
2020/12/25 08:43:18;;;;;;;9.98;7.15;;;;;;;6.29;75.70;98415.72;1732834;82;21581;-37
2020/12/25 08:46:00;;;;;;;10.88;7.40;;;;;;;6.30;75.61;98411.87;1727213;82;21209;-37
2020/12/25 08:48:32;;;;;;;8.70;7.12;;;;;;;6.28;75.60;98405.30;1701576;82;21565;-37
2020/12/25 08:51:08;;;;;;;9.93;7.35;;;;;;;6.20;75.70;98408.39;1728120;82;21568;-37
2020/12/25 08:53:38;;;;;;;12.98;7.72;;;;;;;6.13;75.88;98409.60;1719284;82;21419;-37
2020/12/25 08:56:20;;;;;;;10.93;7.45;;;;;;;6.05;76.08;98410.00;1706658;83;21613;-38
2020/12/25 08:58:58;;;;;;;14.03;6.95;;;;;;;6.04;76.16;98400.95;1714038;82;21219;-37
2020/12/25 09:01:32;;;;;;;8.33;6.75;;;;;;;6.09;76.10;98400.68;1711534;83;21060;-37
2020/12/25 09:04:00;;;;;;;9.65;7.30;;;;;;;6.09;76.28;98404.16;1706977;82;22249;-37
2020/12/25 09:06:29;;;;;;;10.82;7.65;;;;;;;6.12;76.67;98405.34;1711424;83;21970;-37
2020/12/25 09:08:58;;;;;;;11.50;8.00;;;;;;;6.21;76.89;98404.57;1711784;83;21155;-37
2020/12/25 09:11:27;;;;;;;14.50;8.68;;;;;;;6.33;76.52;98408.48;1664224;82;22236;-37
2020/12/25 09:13:55;;;;;;;11.97;7.72;;;;;;;6.34;76.25;98401.95;1712068;82;21123;-37
2020/12/25 09:16:24;;;;;;;10.03;7.28;;;;;;;5.99;76.28;98350.90;1729886;82;21190;-37
2020/12/25 09:18:52;;;;;;;11.60;7.45;;;;;;;6.32;76.36;98392.12;1725755;82;21155;-37
2020/12/25 09:21:20;;;;;;;8.28;6.67;;;;;;;6.46;76.16;98398.34;1719726;82;21166;-37
2020/12/25 09:23:49;;;;;;;9.17;6.97;;;;;;;6.64;75.89;98397.33;1718514;82;22275;-37
2020/12/25 09:26:18;;;;;;;10.63;7.17;;;;;;;6.75;75.63;98396.96;1727521;82;21194;-37
2020/12/25 09:28:46;;;;;;;11.63;8.53;;;;;;;6.80;75.30;98406.88;1714683;82;21653;-37
2020/12/25 09:31:15;;;;;;;10.18;7.47;;;;;;;6.80;74.97;98391.28;1715352;82;21126;-37
2020/12/25 09:33:43;;;;;;;10.45;8.45;;;;;;;6.83;74.89;98391.34;1729327;80;21117;-37
2020/12/25 09:36:12;;;;;;;11.57;8.33;;;;;;;6.90;74.61;98394.17;1680919;84;22119;-37
2020/12/25 09:38:44;;;;;;;11.65;7.85;;;;;;;6.91;74.33;98400.34;1713445;83;21130;-37
2020/12/25 09:41:15;;;;;;;11.95;8.88;;;;;;;6.89;74.22;98393.17;1713410;83;21182;-37
2020/12/25 09:43:46;;;;;;;11.12;7.85;;;;;;;6.89;74.14;98385.87;1713613;83;21168;-37
2020/12/25 09:46:15;;;;;;;10.15;7.20;;;;;;;6.91;74.15;98388.22;1726893;82;21187;-38
2020/12/25 09:48:44;;;;;;;11.25;7.37;;;;;;;7.00;73.98;98390.11;1722350;82;21200;-37
2020/12/25 09:51:13;;;;;;;;;;;;;;;7.14;73.56;98395.73;1730200;82;21342;-37
2020/12/25 09:53:41;;;;;;;12.13;8.13;;;;;;;7.19;73.31;98398.13;1743048;82;20237;-37
2020/12/25 09:56:10;;;;;;;10.80;8.60;;;;;;;7.12;73.27;98398.00;1743055;82;21194;-37
2020/12/25 09:58:38;;;;;;;11.65;7.62;;;;;;;7.07;73.17;98396.95;1719056;82;21203;-37
2020/12/25 10:01:08;;;;;;;10.37;7.63;;;;;;;6.98;73.23;98384.28;1713544;83;21447;-37
2020/12/25 10:03:38;;;;;;;12.65;7.15;;;;;;;6.90;73.54;98394.73;1713230;83;21210;-37
2020/12/25 10:06:08;;;;;;;10.20;8.00;;;;;;;6.88;73.75;98393.74;1678889;85;21175;-37
2020/12/25 10:08:36;;;;;;;12.28;7.70;;;;;;;6.83;73.97;98395.95;1731711;81;21630;-37
2020/12/25 10:11:05;;;;;;;11.45;6.97;;;;;;;6.72;74.15;98390.95;1738138;82;21163;-37
2020/12/25 10:13:33;;;;;;;11.28;7.30;;;;;;;6.61;74.36;98388.06;1738951;82;21284;-37
2020/12/25 10:16:01;;;;;;;11.10;6.78;;;;;;;6.55;74.70;98392.16;1766999;80;21942;-37
2020/12/25 10:18:30;;;;;;;14.10;7.00;;;;;;;6.57;74.65;98378.36;1773101;80;21461;-37
2020/12/25 10:20:59;;;;;;;;;;;;;;;6.26;74.74;98326.23;1665769;85;21180;-37
2020/12/25 10:23:28;;;;;;;11.05;6.58;;;;;;;6.62;74.90;98384.80;1686331;85;20401;-37
2020/12/25 10:25:56;;;;;;;9.53;6.95;;;;;;;6.57;75.03;98385.87;1743955;82;21215;-37
2020/12/25 10:28:24;;;;;;;8.38;5.90;;;;;;;6.69;75.11;98384.92;1751019;82;21150;-37
2020/12/25 10:30:53;;;;;;;10.38;6.28;;;;;;;6.98;74.71;98382.94;1750976;82;21020;-37
2020/12/25 10:33:21;;;;;;;9.15;6.60;;;;;;;7.23;74.11;98377.40;1750937;82;21122;-38
2020/12/25 10:35:50;;;;;;;9.80;6.37;;;;;;;7.43;73.36;98378.09;1741167;82;21154;-37
2020/12/25 10:38:18;;;;;;;9.63;6.40;;;;;;;7.62;72.83;98378.00;1740978;82;21440;-37
2020/12/25 10:40:49;;;;;;;10.00;6.62;;;;;;;7.82;71.93;98382.72;1744371;82;21321;-37
2020/12/25 10:43:20;;;;;;;;;;;;;;;7.99;71.11;98384.86;1736162;82;21155;-37
2020/12/25 10:45:48;;;;;;;10.18;6.20;;;;;;;8.17;70.56;98383.77;1712905;82;20261;-37
2020/12/25 10:48:16;;;;;;;10.10;6.25;;;;;;;8.26;70.79;98390.44;1740593;82;21661;-37
2020/12/25 10:50:45;;;;;;;8.75;6.50;;;;;;;8.45;70.02;98383.34;1734054;82;21333;-38
2020/12/25 10:53:13;;;;;;;9.83;6.62;;;;;;;8.56;69.45;98391.01;1741880;82;21001;-38
2020/12/25 10:55:42;;;;;;;10.85;7.22;;;;;;;8.57;69.15;98391.97;1736193;82;21040;-38
2020/12/25 10:58:10;;;;;;;10.13;7.05;;;;;;;8.53;68.95;98405.23;1675662;85;21195;-38
2020/12/25 11:00:39;;;;;;;9.45;6.47;;;;;;;8.41;69.24;98414.95;1741891;82;21163;-37
2020/12/25 11:03:07;;;;;;;10.05;7.60;;;;;;;8.31;69.42;98422.34;1749595;82;21389;-38
2020/12/25 11:05:36;;;;;;;13.65;8.10;;;;;;;8.12;69.73;98430.75;1729105;82;21217;-38
2020/12/25 11:08:09;;;;;;;12.58;7.83;;;;;;;7.91;70.30;98437.77;1721787;82;21158;-37
2020/12/25 11:10:44;;;;;;;8.75;6.87;;;;;;;7.67;70.93;98440.30;1693780;82;21601;-37
2020/12/25 11:13:16;;;;;;;12.35;7.42;;;;;;;7.49;71.45;98450.82;1723738;82;21135;-37
2020/12/25 11:15:44;;;;;;;13.15;8.03;;;;;;;7.34;72.00;98442.28;1741226;82;21356;-37
2020/12/25 11:18:13;;;;;;;11.78;8.10;;;;;;;7.22;72.59;98443.23;1746243;82;21154;-37
2020/12/25 11:20:43;;;;;;;13.55;8.15;;;;;;;7.08;73.17;98445.67;1743079;82;21178;-37
2020/12/25 11:23:12;;;;;;;10.35;8.05;;;;;;;6.97;73.60;98445.48;1724217;82;21612;-38
2020/12/25 11:25:40;;;;;;;11.83;7.80;;;;;;;6.93;73.85;98438.47;1724908;82;21211;-37
2020/12/25 11:28:08;;;;;;;13.55;7.97;;;;;;;6.92;73.92;98443.67;1713384;83;21209;-37
2020/12/25 11:30:38;;;;;;;10.23;7.67;;;;;;;6.88;74.00;98442.23;1713731;82;21076;-37
2020/12/25 11:33:06;;;;;;;11.53;7.55;;;;;;;6.83;74.14;98434.45;1708312;82;21190;-37
2020/12/25 11:35:34;;;;;;;11.25;7.83;;;;;;;6.79;74.16;98422.05;1713360;83;21032;-38
2020/12/25 11:38:03;;;;;;;10.05;7.40;;;;;;;6.79;74.32;98426.88;1713324;83;21167;-37
2020/12/25 11:40:31;;;;;;;11.00;7.25;;;;;;;6.92;74.24;98429.60;1713334;83;21218;-37
2020/12/25 11:43:03;;;;;;;13.98;8.68;;;;;;;7.06;74.00;98437.75;1719497;82;21170;-37
2020/12/25 11:45:31;;;;;;;10.90;7.22;;;;;;;7.15;73.61;98426.95;1735765;82;21210;-38
2020/12/25 11:47:59;;;;;;;10.08;7.72;;;;;;;7.23;73.24;98431.31;1742316;82;21174;-37